Accueil
METAR-TAF:

METAR-TAF

Aéroports :

Aéroport de Stockholm-Arlanda

Stockholm-Arlanda, Suède

latitude: 59-39N, longitude: 017-57E, altitude: 38 m

Observation

Le bulletin a été fait il y a 32 minutes, à 15:20 UTC
Vent 8 kt de est/sud-est
Température 5°C
Humidité 100%
Pression 1025 hPa
Visibilité: 9000 m
Ciel couvert à une hauteur de 400 ft

METAR: ESSA 211520Z 11008KT 9000 OVC004 05/05 Q1025 R01L/29//95 R08/29//95 R01R/29//95 NOSIG

Heure: 16:52 (15:52 UTC)

Prévision

Le bulletin a été fait il y a 4 heures et 22 minutes, à 11:30 UTC
Prévision valable du 21 à 12 UTC au 22 à 12 UTC
Vent 12 kt de sud-est
Visibilité: 5000 m
Nuages fragmentés à une hauteur de 800 ft
Temporairement
du 21 à 12 UTC au 22 à 12 UTC
Visibilité: 2000 m
Nuages fragmentés à une hauteur de 400 ft
bruine, brume

TAF: ESSA 211130Z 2112/2212 13012KT 5000 BKN008 TEMPO 2112/2212 2000 DZ BR BKN004

Observations et prévisions météorologiques de plus de 4000 aéroports (messages METAR et TAF).

Les stations disponibles sont représentées par des disques jaunes et rouges sur la carte.

Passer la souris dessus pour voir le nom de la station.

Cliquer dessus pour voir les observations et prévisions météorologiques.

Pour changer de carte: cliquez sur les boutons verts avec une croix noire pour zoomer, sur le bouton vert avec un tiret pour effectuer un zoom arrière, ou sur les flèches vertes pour les cartes adjacentes.


METAR-TAF: